Карточка аэропорта UNOO

Внимание!
Информация на этой странице в стадии наполнения.
Если вы не увидели какой-то информации, или заметили неточность - пожалуйста сообщите нам!
Спасибо!
Команда RU-STAFF
Название аэропортаЦентральный
Название аэропорта (англ.)Tsentralny
Превышение312 ft. (95.1 m.)
Координаты54°58.02', 73°18.6'
Высота перехода900m
Эшелон переходаQFE>=733:FL50; QFE<733:FL60;
Коды ответчика5440-5457
Зона ОрВДНовосибирск РПИ (UNNT)
Данные METARUNOO 190200Z 36001MPS 9999 BKN033CB 19/15 Q0999 R25/290150 NOSIG RMK QFE741
Проноз погоды (TAF)UNOO 190145Z 1903/2003 31005G11MPS 8000 BKN030CB TEMPO 1903/1915 -SHRA BKN010 BKN030CB BECMG 1915/1916 27003MPS SCT030CB TEMPO 1916/2001 1000 MIFG BR SCT005 BKN030CB
NOTAMshow/hide NOTAM
AWOS   TABLE

Информация о ВПП

ВПП Длина ВПП (м.) Покрытие Курс ВПП Частота ILS
072501Асфальтобетон65108.3
252501Асфальтобетон245110.1

Диспетчерские позиции

Позывной Наименование органа УВД Частота
UNOO_TWRОмск-Старт119.000
UNOO_R_APPОмск-Круг119.050
UNOO_GNDОмск-Руление121.700
UNOO_APPОмск-Подход131.200



Спутниковое изображение